Time;durP1;ratioP1;P1;durP2;ratioP2;P2;SDS_P1;SDS_P2;PMS_P1;PMS_P2;Temp;Humidity;BMP_temperature;BMP_pressure;BME280_temperature;BME280_humidity;BME280_pressure;Samples;Min_cycle;Max_cycle;Signal;HPM_P1;HPM_P2
2022/01/30 00:00:16;;;;;;;4.97;2.40;;;;;;;8.00;100.00;101272.78;4990057;28;20489;-65
2022/01/30 00:02:41;;;;;;;4.70;2.60;;;;;;;8.07;100.00;101286.00;4990768;28;20086;-65
2022/01/30 00:05:07;;;;;;;5.00;2.50;;;;;;;8.07;100.00;101286.00;4989965;28;20030;-65
2022/01/30 00:07:34;;;;;;;4.82;2.30;;;;;;;8.04;100.00;101282.47;4990266;28;20034;-65
2022/01/30 00:09:59;;;;;;;3.55;1.95;;;;;;;8.04;100.00;101274.53;4989758;28;20041;-65
2022/01/30 00:12:44;;;;;;;4.10;2.10;;;;;;;8.10;100.00;101275.41;4990169;28;20026;-65
2022/01/30 00:15:10;;;;;;;4.82;2.17;;;;;;;8.10;100.00;101286.88;4993411;28;20030;-65
2022/01/30 00:17:43;;;;;;;3.80;1.98;;;;;;;8.20;99.84;101298.34;4993684;28;20046;-65
2022/01/30 00:20:14;;;;;;;4.22;2.42;;;;;;;8.23;99.74;101300.97;4993852;28;20038;-65
2022/01/30 00:22:51;;;;;;;4.15;1.98;;;;;;;8.23;99.33;101299.25;4994157;28;20058;-65
2022/01/30 00:25:26;;;;;;;3.20;1.88;;;;;;;8.27;99.42;101289.53;4995514;28;20105;-65
2022/01/30 00:28:05;;;;;;;4.40;2.25;;;;;;;8.18;99.56;101286.84;4993852;28;20030;-65
2022/01/30 00:30:34;;;;;;;3.55;2.47;;;;;;;8.16;99.25;101281.56;4992183;28;20486;-65
2022/01/30 00:33:01;;;;;;;4.13;2.10;;;;;;;8.21;99.02;101278.88;4993209;28;20041;-65
2022/01/30 00:35:27;;;;;;;3.53;1.83;;;;;;;8.10;99.55;101270.09;4992811;28;20030;-65
2022/01/30 00:37:53;;;;;;;3.78;1.83;;;;;;;8.22;99.03;101275.38;4993638;28;20534;-65
2022/01/30 00:40:19;;;;;;;4.28;1.85;;;;;;;8.16;99.04;101264.75;4993407;28;20041;-65
2022/01/30 00:42:44;;;;;;;2.40;1.40;;;;;;;8.16;99.34;101265.66;4993149;28;20372;-65
2022/01/30 00:45:10;;;;;;;4.00;2.30;;;;;;;8.22;99.18;101265.63;4993436;28;20026;-65
2022/01/30 00:47:35;;;;;;;3.88;1.75;;;;;;;8.07;98.95;101249.81;4993393;28;20533;-65
2022/01/30 00:50:01;;;;;;;3.20;2.40;;;;;;;8.09;99.46;101271.00;4993358;28;20466;-65
2022/01/30 00:52:26;;;;;;;3.33;2.13;;;;;;;8.10;99.64;101267.44;4993301;28;20026;-65
2022/01/30 00:54:51;;;;;;;3.97;1.73;;;;;;;8.13;99.74;101267.44;4995739;28;20046;-65
2022/01/30 00:57:17;;;;;;;2.97;1.67;;;;;;;8.14;100.00;101269.22;4992683;28;20034;-65
2022/01/30 00:59:42;;;;;;;3.75;1.52;;;;;;;8.16;99.79;101267.41;4991660;28;20475;-65
2022/01/30 01:02:08;;;;;;;3.38;1.80;;;;;;;8.14;99.96;101274.50;4992794;28;20117;-65
2022/01/30 01:04:33;;;;;;;3.08;1.52;;;;;;;8.16;99.96;101270.97;4992714;28;20026;-65
2022/01/30 01:06:59;;;;;;;2.55;1.73;;;;;;;8.11;100.00;101271.84;4992771;28;20037;-65
2022/01/30 01:09:32;;;;;;;2.63;1.90;;;;;;;8.12;100.00;101274.53;4992885;28;20562;-65
2022/01/30 01:12:40;;;;;;;3.50;1.98;;;;;;;8.06;100.00;101271.88;4992893;28;20029;-65
2022/01/30 01:25:38;;;;;;;2.35;1.60;;;;;;;8.10;100.00;101262.16;5009717;28;20040;-65
2022/01/30 01:28:04;;;;;;;2.88;1.80;;;;;;;8.08;100.00;101275.41;5012537;28;20105;-64
2022/01/30 01:30:29;;;;;;;3.45;1.70;;;;;;;8.12;100.00;101265.69;5011437;28;20037;-65
2022/01/30 01:32:55;;;;;;;2.80;1.70;;;;;;;8.08;100.00;101262.16;5008077;28;20364;-65
2022/01/30 01:35:20;;;;;;;2.67;1.80;;;;;;;8.07;100.00;101256.84;5012166;28;20442;-65
2022/01/30 01:37:52;;;;;;;3.50;1.67;;;;;;;8.15;100.00;101261.25;5005051;28;20026;-65
2022/01/30 01:40:17;;;;;;;3.78;2.13;;;;;;;8.14;100.00;101256.81;4992281;28;20045;-65
2022/01/30 01:42:44;;;;;;;3.45;1.95;;;;;;;8.12;100.00;101258.63;4994179;28;20026;-65
2022/01/30 01:45:10;;;;;;;3.80;2.13;;;;;;;8.17;100.00;101250.66;4995503;28;20073;-65
2022/01/30 01:47:35;;;;;;;3.97;1.40;;;;;;;8.11;100.00;101246.25;4992084;28;20022;-65
2022/01/30 01:50:01;;;;;;;2.78;1.50;;;;;;;8.17;100.00;101255.94;4991891;28;20114;-65
2022/01/30 01:52:27;;;;;;;4.07;1.60;;;;;;;8.15;100.00;101263.00;4992186;28;20494;-65
2022/01/30 01:54:57;;;;;;;1.95;1.58;;;;;;;8.12;100.00;101265.69;4992028;28;20026;-65
2022/01/30 01:57:24;;;;;;;2.17;1.23;;;;;;;8.14;100.00;101266.56;4991576;28;20065;-65
2022/01/30 01:59:50;;;;;;;3.75;1.70;;;;;;;8.19;100.00;101264.78;4990137;28;20345;-65
2022/01/30 02:02:16;;;;;;;3.00;1.63;;;;;;;8.23;100.00;101255.91;4993946;28;20474;-65
2022/01/30 02:04:42;;;;;;;3.72;1.70;;;;;;;8.18;100.00;101263.91;4992262;28;20386;-65
2022/01/30 02:07:53;;;;;;;3.08;1.35;;;;;;;8.27;100.00;101257.72;4992257;28;20450;-65
2022/01/30 02:09:56;;;;;;;2.17;1.50;;;;;;;8.23;100.00;101259.50;4991087;28;20150;-64
2022/01/30 02:12:32;;;;;;;4.50;1.88;;;;;;;8.25;100.00;101259.50;4992242;28;20242;-65
2022/01/30 02:15:15;;;;;;;3.05;1.75;;;;;;;8.26;100.00;101254.19;4991518;28;20025;-65
2022/01/30 02:25:59;;;;;;;4.18;1.63;;;;;;;8.24;100.00;101241.84;4991030;28;20477;-65
2022/01/30 02:28:26;;;;;;;5.50;1.50;;;;;;;8.20;100.00;101256.81;4990845;28;20038;-65
2022/01/30 02:31:02;;;;;;;1.90;1.33;;;;;;;8.20;100.00;101245.34;4991218;28;20052;-65
2022/01/30 02:33:28;;;;;;;3.22;1.55;;;;;;;8.24;100.00;101241.84;4991745;28;20026;-65
2022/01/30 02:35:53;;;;;;;2.42;1.40;;;;;;;8.19;100.00;101236.50;4991037;28;20037;-65
2022/01/30 02:38:24;;;;;;;1.85;1.30;;;;;;;7.85;100.00;101235.72;4990946;28;20391;-65
2022/01/30 02:40:52;;;;;;;1.70;1.10;;;;;;;7.76;100.00;101222.47;4991036;28;20034;-65
2022/01/30 02:43:22;;;;;;;2.20;1.25;;;;;;;7.71;100.00;101224.25;4991030;28;20102;-65
2022/01/30 02:46:00;;;;;;;1.30;1.20;;;;;;;7.76;100.00;101230.44;4991367;28;20035;-65
2022/01/30 02:49:00;;;;;;;1.42;1.20;;;;;;;7.92;100.00;101228.66;4990787;28;20470;-65
2022/01/30 02:51:33;;;;;;;1.77;1.17;;;;;;;7.77;100.00;101234.88;4990891;28;20045;-65
2022/01/30 02:54:06;;;;;;;1.60;1.20;;;;;;;7.79;100.00;101226.91;4991044;28;20105;-66
2022/01/30 02:56:31;;;;;;;2.08;1.48;;;;;;;7.77;100.00;101229.56;4991173;28;20030;-66
2022/01/30 02:58:57;;;;;;;4.57;1.60;;;;;;;7.71;100.00;101237.50;4990644;28;20542;-66
2022/01/30 03:01:22;;;;;;;2.03;1.00;;;;;;;7.66;100.00;101249.00;4991045;28;20486;-66
2022/01/30 03:03:48;;;;;;;2.20;1.30;;;;;;;7.91;100.00;101243.66;4990600;28;20088;-66
2022/01/30 03:06:14;;;;;;;1.88;1.40;;;;;;;8.01;100.00;101245.38;4991011;28;20432;-66
2022/01/30 03:08:40;;;;;;;2.28;1.30;;;;;;;7.95;100.00;101244.53;4990864;28;20026;-66
2022/01/30 03:11:06;;;;;;;5.03;1.58;;;;;;;7.67;100.00;101256.06;4991016;28;20022;-66
2022/01/30 03:13:31;;;;;;;1.65;1.08;;;;;;;7.65;100.00;101256.06;4992179;28;20027;-66
2022/01/30 03:16:00;;;;;;;1.33;1.23;;;;;;;7.63;100.00;101257.81;4990601;28;20030;-66
2022/01/30 03:18:26;;;;;;;2.45;1.23;;;;;;;7.62;100.00;101260.47;4990718;28;20042;-66
2022/01/30 03:20:51;;;;;;;1.67;1.30;;;;;;;7.96;100.00;101263.06;4998106;28;20029;-66
2022/01/30 03:23:16;;;;;;;1.88;1.60;;;;;;;7.97;100.00;101254.22;5010129;28;20397;-66
2022/01/30 03:25:42;;;;;;;2.97;1.60;;;;;;;7.97;100.00;101256.00;5010002;28;20026;-66
2022/01/30 03:28:07;;;;;;;2.80;1.60;;;;;;;7.99;100.00;101262.16;5010510;28;20545;-67
2022/01/30 03:30:33;;;;;;;4.35;1.83;;;;;;;8.04;100.00;101261.28;5009820;28;20478;-67
2022/01/30 03:32:58;;;;;;;1.92;1.48;;;;;;;8.11;100.00;101271.84;5006919;28;20034;-66
2022/01/30 03:35:24;;;;;;;1.60;1.38;;;;;;;8.09;100.00;101276.28;5009895;28;20026;-66
2022/01/30 03:37:50;;;;;;;1.63;1.40;;;;;;;8.09;100.00;101278.94;5003264;28;20442;-66
2022/01/30 03:40:15;;;;;;;2.45;1.58;;;;;;;8.03;100.00;101274.53;4992292;28;20026;-66
2022/01/30 03:42:41;;;;;;;2.75;1.60;;;;;;;8.01;100.00;101293.09;4990440;28;20027;-66
2022/01/30 03:45:06;;;;;;;4.38;1.50;;;;;;;8.04;100.00;101281.56;4993062;28;20174;-66
2022/01/30 03:47:32;;;;;;;2.05;1.35;;;;;;;8.14;100.00;101299.22;4991008;28;20026;-66
2022/01/30 03:49:57;;;;;;;3.75;1.50;;;;;;;8.15;100.00;101294.81;4994260;28;20034;-66
2022/01/30 03:52:23;;;;;;;2.38;1.33;;;;;;;8.17;100.00;101304.50;4994399;28;20433;-67
2022/01/30 03:54:48;;;;;;;1.45;1.15;;;;;;;8.01;100.00;101314.28;4993849;28;20030;-67
2022/01/30 03:57:14;;;;;;;2.33;1.50;;;;;;;8.00;100.00;101304.56;4994169;28;20113;-66
2022/01/30 03:59:39;;;;;;;1.98;1.23;;;;;;;8.01;100.00;101298.38;4994477;28;20026;-66
2022/01/30 04:02:05;;;;;;;3.10;1.40;;;;;;;7.97;100.00;101285.16;4994279;28;20026;-66
2022/01/30 04:04:34;;;;;;;2.10;1.33;;;;;;;8.11;100.00;101311.59;4994036;28;20105;-67
2022/01/30 04:07:00;;;;;;;1.67;1.25;;;;;;;8.09;100.00;101310.75;4994124;28;20022;-67
2022/01/30 04:09:27;;;;;;;3.42;1.80;;;;;;;8.16;100.00;101316.00;5009952;28;20038;-67
2022/01/30 04:11:53;;;;;;;3.45;1.70;;;;;;;8.10;100.00;101317.78;5013732;28;20045;-67
2022/01/30 04:14:19;;;;;;;7.18;1.85;;;;;;;8.09;100.00;101316.03;4998058;28;20018;-67
2022/01/30 04:16:44;;;;;;;4.30;1.70;;;;;;;8.14;100.00;101319.56;4994071;28;20045;-66
2022/01/30 04:19:10;;;;;;;1.75;1.50;;;;;;;8.12;100.00;101322.22;4993631;28;20418;-66
2022/01/30 04:21:36;;;;;;;3.78;1.88;;;;;;;8.13;100.00;101320.44;4993724;28;20524;-67
2022/01/30 04:24:02;;;;;;;2.85;1.92;;;;;;;8.12;100.00;101327.53;4993434;28;20096;-67
2022/01/30 04:26:27;;;;;;;2.17;1.38;;;;;;;8.11;100.00;101324.84;4993623;28;20023;-67
2022/01/30 04:28:54;;;;;;;3.05;1.65;;;;;;;8.17;100.00;101324.84;4993039;28;20054;-67
2022/01/30 04:31:19;;;;;;;6.68;2.00;;;;;;;8.12;100.00;101332.81;4993890;28;20073;-67
2022/01/30 04:33:45;;;;;;;2.40;1.63;;;;;;;8.12;100.00;101330.16;4993473;28;20061;-67
2022/01/30 04:36:15;;;;;;;6.05;2.00;;;;;;;8.12;100.00;101343.41;4993688;28;20477;-67
2022/01/30 04:57:22;;;;;;;2.97;1.98;;;;;;;7.93;100.00;101337.25;5008218;28;20524;-67
2022/01/30 05:00:04;;;;;;;5.03;2.20;;;;;;;7.84;100.00;101347.84;5011074;28;20040;-67
2022/01/30 05:07:33;;;;;;;6.20;2.05;;;;;;;7.65;100.00;101338.13;5011929;28;20025;-67
2022/01/30 05:09:58;;;;;;;3.97;1.80;;;;;;;7.57;100.00;101345.19;4991965;28;20534;-67
2022/01/30 05:12:30;;;;;;;27.88;2.85;;;;;;;7.41;100.00;101330.16;4993244;28;20042;-67
2022/01/30 05:14:56;;;;;;;6.68;2.70;;;;;;;7.45;100.00;101345.19;4994969;28;20053;-67
2022/01/30 05:17:22;;;;;;;6.82;2.50;;;;;;;7.39;100.00;101339.88;4993149;28;20030;-67
2022/01/30 05:19:47;;;;;;;6.22;2.53;;;;;;;7.34;100.00;101343.41;4992191;28;20042;-67
2022/01/30 05:22:14;;;;;;;6.78;3.85;;;;;;;7.30;100.00;101337.22;5001689;28;20022;-67
2022/01/30 05:24:39;;;;;;;7.60;2.95;;;;;;;7.21;100.00;101345.16;5011414;28;20026;-67
2022/01/30 05:27:05;;;;;;;3.63;2.08;;;;;;;7.18;100.00;101341.63;5012664;28;20084;-67
2022/01/30 05:29:31;;;;;;;8.68;3.25;;;;;;;7.17;100.00;101347.75;5011716;28;20061;-67
2022/01/30 05:31:57;;;;;;;3.72;2.50;;;;;;;7.12;100.00;101355.69;5011303;28;20427;-67
2022/01/30 05:34:22;;;;;;;6.38;3.22;;;;;;;7.05;100.00;101359.19;5009789;28;20030;-67
2022/01/30 05:36:48;;;;;;;4.38;2.30;;;;;;;7.03;100.00;101353.03;5010023;28;20053;-67
2022/01/30 05:39:14;;;;;;;3.90;1.98;;;;;;;7.07;100.00;101349.50;4995012;28;20145;-67
2022/01/30 05:41:40;;;;;;;10.50;2.33;;;;;;;7.00;100.00;101346.84;4992979;28;20030;-67
2022/01/30 05:44:11;;;;;;;6.32;1.92;;;;;;;7.00;100.00;101347.72;4992815;28;20134;-67
2022/01/30 05:46:44;;;;;;;6.07;2.00;;;;;;;6.93;100.00;101351.25;4992772;28;20110;-67
2022/01/30 05:49:12;;;;;;;6.00;2.10;;;;;;;6.92;100.00;101354.75;4991804;28;20092;-67
2022/01/30 05:51:38;;;;;;;2.58;1.45;;;;;;;6.90;100.00;101361.81;4992623;28;20498;-67
2022/01/30 05:54:03;;;;;;;3.28;1.55;;;;;;;6.87;100.00;101369.72;4991951;28;20025;-67
2022/01/30 05:56:29;;;;;;;4.68;1.90;;;;;;;6.86;100.00;101378.53;4992006;28;20105;-67
2022/01/30 05:58:54;;;;;;;3.15;1.50;;;;;;;6.81;100.00;101377.63;4991794;28;20105;-67
2022/01/30 06:01:20;;;;;;;6.00;2.78;;;;;;;6.79;100.00;101379.38;4991761;28;20026;-66
2022/01/30 06:03:45;;;;;;;5.53;2.78;;;;;;;6.78;100.00;101382.91;4992024;28;20045;-66
2022/01/30 06:06:11;;;;;;;5.22;2.90;;;;;;;6.74;100.00;101383.75;4992043;28;20053;-66
2022/01/30 06:11:04;;;;;;;7.90;3.13;;;;;;;6.69;100.00;101377.56;4990509;28;20030;-67
2022/01/30 06:13:30;;;;;;;13.52;4.57;;;;;;;6.65;100.00;101386.38;4991410;28;20019;-67
2022/01/30 06:15:55;;;;;;;12.30;5.30;;;;;;;6.67;100.00;101395.22;4991468;28;20034;-67
2022/01/30 06:18:21;;;;;;;13.98;5.60;;;;;;;6.62;100.00;101391.66;5004118;28;20046;-67
2022/01/30 06:20:46;;;;;;;12.68;6.75;;;;;;;6.57;100.00;101393.41;5010472;28;20022;-67
2022/01/30 06:23:11;;;;;;;9.60;5.85;;;;;;;6.54;100.00;101393.34;5011093;28;20076;-67
2022/01/30 06:25:37;;;;;;;9.98;5.13;;;;;;;6.54;100.00;101404.81;5011257;28;20050;-67
2022/01/30 06:28:03;;;;;;;7.93;4.15;;;;;;;6.59;100.00;101415.41;5011339;28;20026;-67
2022/01/30 06:30:28;;;;;;;8.70;5.18;;;;;;;6.60;100.00;101422.47;5010663;28;20030;-67
2022/01/30 06:32:53;;;;;;;14.05;5.47;;;;;;;6.63;100.00;101414.56;5011150;28;20482;-66
2022/01/30 06:35:19;;;;;;;11.27;6.57;;;;;;;6.65;100.00;101432.19;5010610;28;20116;-66
2022/01/30 06:37:44;;;;;;;14.65;5.40;;;;;;;6.53;100.00;101433.88;5007264;28;20037;-67
2022/01/30 06:40:11;;;;;;;8.20;4.30;;;;;;;6.64;100.00;101432.19;4990867;28;20061;-66
2022/01/30 06:42:37;;;;;;;9.30;3.90;;;;;;;6.65;100.00;101436.59;4991578;28;20034;-67
2022/01/30 06:45:02;;;;;;;7.63;3.65;;;;;;;6.58;100.00;101427.75;4991233;28;20058;-66
2022/01/30 06:47:28;;;;;;;10.98;4.22;;;;;;;6.53;100.00;101431.25;4991439;28;20034;-66
2022/01/30 06:49:53;;;;;;;6.85;3.15;;;;;;;6.20;100.00;101438.94;4993114;28;20486;-66
2022/01/30 06:52:19;;;;;;;6.22;3.80;;;;;;;6.42;100.00;101441.75;4991472;28;20053;-66
2022/01/30 06:54:44;;;;;;;7.95;4.22;;;;;;;6.39;100.00;101443.50;4990444;28;20442;-66
2022/01/30 06:57:10;;;;;;;8.68;4.80;;;;;;;6.34;100.00;101442.56;4991552;28;20477;-66
2022/01/30 06:59:35;;;;;;;10.70;5.00;;;;;;;6.35;100.00;101453.16;4990628;28;20104;-66
2022/01/30 07:02:01;;;;;;;15.38;6.55;;;;;;;6.32;100.00;101460.16;4991175;28;20026;-66
2022/01/30 07:04:27;;;;;;;12.25;5.88;;;;;;;6.26;100.00;101457.50;4990792;28;20034;-66
2022/01/30 07:06:52;;;;;;;12.15;6.85;;;;;;;6.24;100.00;101459.22;4991153;28;20101;-66
2022/01/30 07:09:18;;;;;;;11.98;6.25;;;;;;;6.26;100.00;101462.78;4990398;28;20037;-66
2022/01/30 07:11:43;;;;;;;9.82;4.90;;;;;;;6.24;100.00;101468.03;4991404;28;20076;-66
2022/01/30 07:14:09;;;;;;;6.53;4.07;;;;;;;6.21;100.00;101461.84;4990726;28;20033;-66
2022/01/30 07:16:34;;;;;;;6.38;4.43;;;;;;;6.24;100.00;101468.03;4992821;28;20491;-66
2022/01/30 07:19:00;;;;;;;18.55;9.20;;;;;;;6.22;100.00;101468.91;4990736;28;20407;-66
2022/01/30 07:21:25;;;;;;;13.75;7.93;;;;;;;6.23;100.00;101468.91;4991104;28;20038;-66
2022/01/30 07:23:50;;;;;;;16.02;7.35;;;;;;;6.21;100.00;101460.06;4990000;28;20055;-66
2022/01/30 07:26:16;;;;;;;7.25;5.10;;;;;;;6.15;100.00;101467.06;4989893;28;20033;-66
2022/01/30 07:28:41;;;;;;;7.82;4.65;;;;;;;6.17;100.00;101465.34;4990843;28;20030;-66
2022/01/30 07:31:07;;;;;;;8.13;3.80;;;;;;;6.18;100.00;101477.66;4990668;28;20030;-66
2022/01/30 07:33:35;;;;;;;8.60;5.10;;;;;;;6.21;100.00;101475.94;4990352;28;20407;-66
2022/01/30 07:36:00;;;;;;;12.13;6.32;;;;;;;6.32;100.00;101486.59;4991520;28;20429;-66
2022/01/30 07:38:27;;;;;;;10.43;6.10;;;;;;;6.40;100.00;101488.44;4991907;28;20037;-66
2022/01/30 07:40:52;;;;;;;20.63;10.07;;;;;;;6.45;100.00;101488.47;5007542;28;20022;-66
2022/01/30 07:43:18;;;;;;;12.10;7.20;;;;;;;6.44;100.00;101495.50;5010235;28;20022;-66
2022/01/30 07:45:44;;;;;;;15.18;7.32;;;;;;;6.37;100.00;101463.72;5010169;28;20030;-66
2022/01/30 07:48:09;;;;;;;10.13;6.70;;;;;;;6.63;100.00;101504.44;5007076;28;20030;-66
2022/01/30 07:50:35;;;;;;;13.20;7.18;;;;;;;6.72;100.00;101508.91;5009796;28;20108;-66
2022/01/30 07:53:00;;;;;;;23.40;10.10;;;;;;;6.76;100.00;101503.66;5010000;28;20500;-66
2022/01/30 07:55:26;;;;;;;22.27;9.48;;;;;;;6.74;100.00;101508.03;5010265;28;20026;-66
2022/01/30 07:57:51;;;;;;;17.77;10.25;;;;;;;6.78;100.00;101512.47;5010419;28;20054;-66
2022/01/30 08:00:17;;;;;;;17.25;10.23;;;;;;;6.90;100.00;101512.56;5009885;28;20038;-67
2022/01/30 08:02:42;;;;;;;14.30;9.60;;;;;;;7.01;100.00;101499.38;5010102;28;20084;-66
2022/01/30 08:05:08;;;;;;;16.52;8.65;;;;;;;7.09;100.00;101510.88;5010164;28;20029;-66
2022/01/30 08:07:34;;;;;;;16.45;9.35;;;;;;;7.29;100.00;101515.41;5008311;28;20053;-66
2022/01/30 08:09:59;;;;;;;26.80;12.27;;;;;;;7.36;100.00;101519.88;4989742;28;20053;-66
2022/01/30 08:12:24;;;;;;;29.20;13.50;;;;;;;7.33;100.00;101517.19;4990304;28;20030;-66
2022/01/30 08:14:50;;;;;;;24.98;14.63;;;;;;;7.26;100.00;101520.69;4990161;28;20022;-66
2022/01/30 08:17:21;;;;;;;21.80;13.23;;;;;;;7.29;100.00;101527.75;4990200;28;20034;-66
2022/01/30 08:19:47;;;;;;;15.32;10.32;;;;;;;7.14;100.00;101530.31;4992067;28;20034;-67
2022/01/30 08:22:13;;;;;;;18.02;10.82;;;;;;;7.09;100.00;101522.38;4990350;28;20037;-66
2022/01/30 08:24:39;;;;;;;13.68;8.23;;;;;;;7.21;100.00;101526.84;4992806;28;20452;-66
2022/01/30 08:27:05;;;;;;;19.23;9.23;;;;;;;7.46;100.00;101529.59;4990186;28;20026;-67
2022/01/30 08:29:31;;;;;;;17.85;9.52;;;;;;;7.81;100.00;101537.66;4989584;28;20111;-66
2022/01/30 08:31:58;;;;;;;18.35;9.18;;;;;;;9.50;100.00;101534.94;4989866;28;20161;-67
2022/01/30 08:34:24;;;;;;;16.45;9.63;;;;;;;11.30;100.00;101536.22;4990510;28;20023;-66
2022/01/30 08:36:50;;;;;;;13.80;9.75;;;;;;;13.01;96.91;101527.44;4993883;28;20477;-66
2022/01/30 08:39:15;;;;;;;16.63;8.63;;;;;;;14.16;81.32;101525.94;4993451;28;20037;-67
2022/01/30 08:41:40;;;;;;;12.95;8.05;;;;;;;14.77;66.97;101525.34;4993460;28;20022;-67
2022/01/30 08:44:06;;;;;;;12.95;7.22;;;;;;;15.24;64.16;101533.00;4993521;28;20027;-67
2022/01/30 08:46:31;;;;;;;15.32;6.78;;;;;;;16.03;60.78;101541.44;4993196;28;20026;-67
2022/01/30 08:48:57;;;;;;;11.20;6.43;;;;;;;16.95;57.65;101536.63;4993549;28;20022;-67
2022/01/30 08:51:22;;;;;;;12.65;6.18;;;;;;;17.89;53.87;101534.09;4995502;28;20562;-67
2022/01/30 08:53:48;;;;;;;24.45;10.07;;;;;;;18.27;51.04;101536.13;4993437;28;20029;-67
2022/01/30 08:56:13;;;;;;;19.90;7.60;;;;;;;18.65;49.61;101537.31;4993067;28;20030;-67
2022/01/30 08:58:39;;;;;;;10.48;4.43;;;;;;;18.63;47.84;101537.41;4994105;28;20026;-68
2022/01/30 09:01:04;;;;;;;9.27;3.80;;;;;;;18.29;48.76;101543.22;4992274;28;20031;-68
2022/01/30 09:03:29;;;;;;;8.85;4.10;;;;;;;18.19;48.74;101532.88;4992849;28;20032;-68
2022/01/30 09:05:55;;;;;;;5.95;3.15;;;;;;;17.91;49.03;101535.78;4991415;28;20022;-68
2022/01/30 09:08:20;;;;;;;6.60;3.42;;;;;;;17.91;49.08;101543.84;4991781;28;20032;-68
2022/01/30 09:10:46;;;;;;;7.88;3.33;;;;;;;17.63;49.63;101553.91;4991726;28;20038;-68
2022/01/30 09:13:12;;;;;;;10.73;3.22;;;;;;;17.95;48.36;101534.72;4994690;28;20033;-68
2022/01/30 09:15:40;;;;;;;15.45;4.53;;;;;;;18.06;47.97;101548.66;4994736;28;20034;-68
2022/01/30 09:18:09;;;;;;;8.98;2.55;;;;;;;17.97;48.37;101556.22;4992908;28;20042;-67
2022/01/30 09:20:36;;;;;;;9.20;2.60;;;;;;;18.66;46.91;101552.53;4995253;28;20038;-67
2022/01/30 09:23:02;;;;;;;8.05;2.63;;;;;;;18.37;47.06;101554.56;4992498;28;20030;-67
2022/01/30 09:25:27;;;;;;;13.07;5.07;;;;;;;17.81;48.41;101547.81;4992529;28;20038;-68
2022/01/30 09:27:53;;;;;;;13.48;3.00;;;;;;;18.89;46.30;101542.56;4992793;28;20409;-67
2022/01/30 09:30:19;;;;;;;12.90;3.95;;;;;;;18.97;44.92;101539.53;4992369;28;20026;-67
2022/01/30 09:32:44;;;;;;;7.85;3.00;;;;;;;18.84;45.51;101543.69;4992950;28;20433;-67
2022/01/30 09:35:10;;;;;;;6.72;2.70;;;;;;;19.53;44.46;101536.13;4993662;28;20013;-68
2022/01/30 09:37:35;;;;;;;10.25;2.88;;;;;;;19.99;43.39;101542.97;4996452;28;20028;-68
2022/01/30 09:40:01;;;;;;;8.68;2.83;;;;;;;19.24;43.34;101546.44;4993101;28;20494;-67
2022/01/30 09:42:26;;;;;;;16.75;4.95;;;;;;;19.26;44.92;101547.22;4994829;28;20448;-67
2022/01/30 09:44:52;;;;;;;9.60;3.13;;;;;;;19.29;44.86;101552.53;4991863;28;20057;-67
2022/01/30 09:47:18;;;;;;;13.07;2.55;;;;;;;19.12;44.73;101544.25;4990815;28;20438;-67
2022/01/30 09:49:52;;;;;;;10.00;3.58;;;;;;;19.46;44.19;101549.97;4991286;28;20351;-68
2022/01/30 09:52:19;;;;;;;12.85;3.03;;;;;;;19.04;45.14;101546.41;4992149;28;20109;-68
2022/01/30 09:54:45;;;;;;;13.52;3.35;;;;;;;19.34;44.51;101558.63;4992029;28;20035;-68
2022/01/30 09:57:11;;;;;;;9.57;3.70;;;;;;;19.14;44.81;101558.56;4992341;28;20085;-68
2022/01/30 09:59:37;;;;;;;12.00;3.35;;;;;;;19.33;44.25;101548.75;4991817;28;20478;-67
2022/01/30 10:02:07;;;;;;;9.40;2.95;;;;;;;19.82;43.01;101542.88;4992056;28;20041;-67
2022/01/30 10:04:34;;;;;;;6.90;2.67;;;;;;;20.49;42.89;101541.44;4991734;28;20022;-68
2022/01/30 10:07:06;;;;;;;9.55;2.60;;;;;;;20.56;42.09;101540.19;4991797;28;20030;-68
2022/01/30 10:09:36;;;;;;;9.43;2.50;;;;;;;19.66;41.13;101531.03;4990746;28;20122;-68
2022/01/30 10:12:16;;;;;;;7.90;2.08;;;;;;;19.40;43.64;101520.56;4992004;28;20061;-68
2022/01/30 10:15:15;;;;;;;9.77;3.13;;;;;;;19.18;44.03;101522.41;4991958;28;20022;-68
2022/01/30 10:17:47;;;;;;;6.82;3.13;;;;;;;19.63;43.41;101528.50;4992111;28;20443;-68
2022/01/30 10:20:21;;;;;;;6.13;2.30;;;;;;;19.67;43.77;101537.31;5004188;28;20021;-68
2022/01/30 10:22:58;;;;;;;12.63;2.88;;;;;;;19.56;43.71;101540.50;5010450;28;20506;-68
2022/01/30 10:25:31;;;;;;;10.68;3.25;;;;;;;19.88;43.02;101544.44;5010222;28;20021;-68
2022/01/30 10:28:10;;;;;;;10.70;2.65;;;;;;;19.53;43.69;101535.25;5011092;28;20108;-68
2022/01/30 10:30:53;;;;;;;15.43;2.88;;;;;;;19.64;43.69;101543.72;5011025;28;20072;-68
2022/01/30 10:33:36;;;;;;;10.77;2.63;;;;;;;19.01;44.08;101524.97;5007641;28;20489;-68
2022/01/30 10:36:03;;;;;;;9.20;2.40;;;;;;;19.31;42.56;101519.13;5011001;28;20084;-68
2022/01/30 10:38:38;;;;;;;10.02;2.63;;;;;;;18.96;43.68;101513.50;5002011;28;20053;-68
2022/01/30 10:41:15;;;;;;;10.23;2.58;;;;;;;18.94;43.57;101510.88;4991337;28;20026;-68
2022/01/30 10:43:56;;;;;;;8.25;2.60;;;;;;;18.76;42.60;101497.31;4994068;28;20117;-68
2022/01/30 10:46:38;;;;;;;10.95;2.55;;;;;;;18.99;42.71;101484.59;4991390;28;20022;-68
2022/01/30 10:49:09;;;;;;;9.80;2.38;;;;;;;17.42;41.61;101482.03;4991040;28;20027;-69
2022/01/30 10:51:35;;;;;;;8.48;1.75;;;;;;;18.08;44.02;101476.75;4991074;28;20030;-69
2022/01/30 10:54:06;;;;;;;6.40;1.83;;;;;;;17.86;42.36;101470.47;4991198;28;20022;-69
2022/01/30 10:56:33;;;;;;;8.40;1.92;;;;;;;18.31;42.95;101471.31;4991147;28;20026;-69
2022/01/30 10:59:16;;;;;;;10.00;3.30;;;;;;;18.92;41.60;101466.03;4989859;28;20030;-69
2022/01/30 11:01:45;;;;;;;9.82;1.67;;;;;;;19.17;40.96;101464.00;4991250;28;20403;-70
2022/01/30 11:04:40;;;;;;;8.90;1.90;;;;;;;19.34;40.19;101470.41;4989903;28;20105;-70
2022/01/30 11:07:06;;;;;;;6.28;1.88;;;;;;;17.93;41.20;101466.59;4985722;28;20125;-70
2022/01/30 11:09:40;;;;;;;6.70;1.90;;;;;;;17.08;42.24;101468.06;4992412;28;20220;-69
2022/01/30 11:12:15;;;;;;;7.07;1.90;;;;;;;16.76;42.43;101453.06;4989125;28;20022;-69
2022/01/30 11:17:16;;;;;;;7.78;1.80;;;;;;;16.00;44.40;101482.47;4990642;28;20026;-70
2022/01/30 11:19:43;;;;;;;8.30;2.03;;;;;;;15.04;45.12;101479.03;4990582;28;20501;-69
2022/01/30 11:22:14;;;;;;;7.45;1.67;;;;;;;14.34;47.17;101482.69;4991065;28;20034;-69
2022/01/30 11:25:04;;;;;;;8.57;1.70;;;;;;;13.66;47.73;101474.47;4990997;28;20026;-68
2022/01/30 11:27:31;;;;;;;6.13;2.15;;;;;;;13.27;48.00;101475.31;4992871;28;20026;-68
2022/01/30 11:29:58;;;;;;;6.30;1.63;;;;;;;13.14;49.96;101474.69;4990306;28;20038;-69
2022/01/30 11:32:25;;;;;;;6.47;2.00;;;;;;;13.56;50.08;101468.44;4990458;28;20050;-68
2022/01/30 11:34:52;;;;;;;8.32;2.33;;;;;;;14.34;46.67;101466.66;4998684;28;20018;-69
2022/01/30 11:37:18;;;;;;;8.48;1.70;;;;;;;15.17;45.43;101469.75;5007908;28;20506;-69
2022/01/30 11:39:48;;;;;;;5.13;1.70;;;;;;;15.23;45.09;101448.13;4992548;28;20105;-69
2022/01/30 11:42:23;;;;;;;6.53;1.70;;;;;;;15.35;45.16;101453.13;4990632;28;20498;-70
2022/01/30 11:45:08;;;;;;;6.10;1.77;;;;;;;14.80;45.38;101462.75;4990029;28;20026;-70
2022/01/30 11:47:52;;;;;;;8.00;2.00;;;;;;;15.24;45.92;101454.34;4993004;28;20034;-70
2022/01/30 11:50:20;;;;;;;8.23;1.83;;;;;;;16.15;43.76;101450.66;4990409;28;20061;-71
2022/01/30 11:52:56;;;;;;;10.38;1.80;;;;;;;16.20;43.72;101450.50;4990148;28;20034;-70
2022/01/30 11:55:40;;;;;;;9.32;1.67;;;;;;;16.68;42.72;101446.22;4990189;28;20030;-70
2022/01/30 11:58:06;;;;;;;8.25;1.75;;;;;;;16.83;43.27;101430.44;4990220;28;20398;-70
2022/01/30 12:00:38;;;;;;;9.02;2.65;;;;;;;17.44;42.07;101438.91;4990221;28;20123;-70
2022/01/30 12:03:25;;;;;;;4.82;1.45;;;;;;;17.48;40.03;101429.84;4990131;28;20101;-71
2022/01/30 12:05:52;;;;;;;6.18;1.50;;;;;;;17.92;41.26;101424.44;4990145;28;20087;-71
2022/01/30 12:08:44;;;;;;;6.47;1.67;;;;;;;17.90;40.04;101429.03;4989799;28;20100;-71
2022/01/30 12:11:34;;;;;;;7.97;1.60;;;;;;;18.19;40.33;101433.22;4994172;28;20023;-71
2022/01/30 12:14:00;;;;;;;4.00;1.40;;;;;;;18.05;39.86;101425.72;4993901;28;20026;-71
2022/01/30 12:16:47;;;;;;;8.00;1.85;;;;;;;17.69;41.58;101443.31;4995689;28;20038;-71